sensor_id;sensor_type;location;lat;lon;timestamp;pressure;altitude;pressure_sealevel;temperature;humidity
67430;BME280;54298;52.076;5.264;2023-04-26T00:00:44;101870.0;;;3.74;75.03
67430;BME280;54298;52.076;5.264;2023-04-26T00:02:20;101873.0;;;3.6;75.47
67430;BME280;54298;52.076;5.264;2023-04-26T00:03:56;101878.0;;;3.63;74.8
67430;BME280;54298;52.076;5.264;2023-04-26T00:07:08;101873.0;;;3.42;75.89
67430;BME280;54298;52.076;5.264;2023-04-26T00:08:44;101874.0;;;3.33;75.95
67430;BME280;54298;52.076;5.264;2023-04-26T00:10:21;101874.0;;;3.43;75.83
67430;BME280;54298;52.076;5.264;2023-04-26T00:13:34;101874.0;;;3.44;75.58
67430;BME280;54298;52.076;5.264;2023-04-26T00:15:10;101876.0;;;3.38;75.56
67430;BME280;54298;52.076;5.264;2023-04-26T00:16:46;101870.0;;;3.47;75.34
67430;BME280;54298;52.076;5.264;2023-04-26T00:18:22;101871.0;;;3.49;74.97
67430;BME280;54298;52.076;5.264;2023-04-26T00:21:35;101868.0;;;3.37;75.44
67430;BME280;54298;52.076;5.264;2023-04-26T00:23:12;101869.0;;;3.21;76.0
67430;BME280;54298;52.076;5.264;2023-04-26T00:24:48;101870.0;;;3.29;75.53
67430;BME280;54298;52.076;5.264;2023-04-26T00:28:00;101865.0;;;3.23;75.7
67430;BME280;54298;52.076;5.264;2023-04-26T00:29:36;101868.0;;;3.31;75.27
67430;BME280;54298;52.076;5.264;2023-04-26T00:31:13;101870.0;;;3.21;75.42
67430;BME280;54298;52.076;5.264;2023-04-26T00:34:31;101870.0;;;3.08;76.08
67430;BME280;54298;52.076;5.264;2023-04-26T00:36:07;101867.0;;;3.03;76.09
67430;BME280;54298;52.076;5.264;2023-04-26T00:37:43;101870.0;;;2.85;76.77
67430;BME280;54298;52.076;5.264;2023-04-26T00:39:19;101870.0;;;2.76;77.38
67430;BME280;54298;52.076;5.264;2023-04-26T00:42:31;101867.0;;;2.76;77.33
67430;BME280;54298;52.076;5.264;2023-04-26T00:44:07;101873.0;;;2.73;77.3
67430;BME280;54298;52.076;5.264;2023-04-26T00:45:44;101868.0;;;2.68;77.56
67430;BME280;54298;52.076;5.264;2023-04-26T00:48:56;101867.0;;;2.73;77.22
67430;BME280;54298;52.076;5.264;2023-04-26T00:50:33;101867.0;;;2.72;77.13
67430;BME280;54298;52.076;5.264;2023-04-26T00:52:09;101867.0;;;2.63;77.53
67430;BME280;54298;52.076;5.264;2023-04-26T00:55:22;101862.0;;;2.61;77.55
67430;BME280;54298;52.076;5.264;2023-04-26T00:56:59;101860.0;;;2.77;76.83
67430;BME280;54298;52.076;5.264;2023-04-26T00:58:37;101865.0;;;2.59;76.8
67430;BME280;54298;52.076;5.264;2023-04-26T01:00:14;101860.0;;;2.5;77.27
67430;BME280;54298;52.076;5.264;2023-04-26T01:03:26;101864.0;;;2.42;77.55
67430;BME280;54298;52.076;5.264;2023-04-26T01:05:03;101865.0;;;2.38;77.72
67430;BME280;54298;52.076;5.264;2023-04-26T01:06:40;101866.0;;;2.31;77.97
67430;BME280;54298;52.076;5.264;2023-04-26T01:09:54;101865.0;;;2.35;77.8
67430;BME280;54298;52.076;5.264;2023-04-26T01:11:31;101864.0;;;2.21;78.38
67430;BME280;54298;52.076;5.264;2023-04-26T01:13:08;101861.0;;;2.13;78.86
67430;BME280;54298;52.076;5.264;2023-04-26T01:14:45;101871.0;;;1.97;79.47
67430;BME280;54298;52.076;5.264;2023-04-26T01:17:58;101872.0;;;2.09;79.11
67430;BME280;54298;52.076;5.264;2023-04-26T01:19:34;101872.0;;;2.14;78.73
67430;BME280;54298;52.076;5.264;2023-04-26T01:21:10;101875.0;;;2.06;79.02
67430;BME280;54298;52.076;5.264;2023-04-26T01:24:23;101874.0;;;2.04;79.27
67430;BME280;54298;52.076;5.264;2023-04-26T01:25:59;101880.0;;;2.04;79.53
67430;BME280;54298;52.076;5.264;2023-04-26T01:27:35;101874.0;;;2.02;79.33
67430;BME280;54298;52.076;5.264;2023-04-26T01:30:50;101873.0;;;1.83;79.44
67430;BME280;54298;52.076;5.264;2023-04-26T01:32:26;101874.0;;;2.11;78.41
67430;BME280;54298;52.076;5.264;2023-04-26T01:34:02;101871.0;;;2.05;77.91
67430;BME280;54298;52.076;5.264;2023-04-26T01:38:51;101871.0;;;2.09;77.17
67430;BME280;54298;52.076;5.264;2023-04-26T01:40:27;101875.0;;;1.99;77.24
67430;BME280;54298;52.076;5.264;2023-04-26T01:42:04;101876.0;;;1.94;77.64
67430;BME280;54298;52.076;5.264;2023-04-26T01:45:16;101874.0;;;1.76;78.25
67430;BME280;54298;52.076;5.264;2023-04-26T01:46:52;101870.0;;;1.78;78.12
67430;BME280;54298;52.076;5.264;2023-04-26T01:48:28;101871.0;;;1.87;77.39
67430;BME280;54298;52.076;5.264;2023-04-26T01:51:42;101870.0;;;1.81;77.5
67430;BME280;54298;52.076;5.264;2023-04-26T01:53:18;101867.0;;;1.72;77.67
67430;BME280;54298;52.076;5.264;2023-04-26T01:54:55;101865.0;;;1.7;77.55
67430;BME280;54298;52.076;5.264;2023-04-26T01:58:07;101864.0;;;1.41;78.19
67430;BME280;54298;52.076;5.264;2023-04-26T01:59:43;101863.0;;;1.11;79.09
67430;BME280;54298;52.076;5.264;2023-04-26T02:01:19;101866.0;;;1.61;77.58
67430;BME280;54298;52.076;5.264;2023-04-26T02:02:56;101864.0;;;1.66;77.14
67430;BME280;54298;52.076;5.264;2023-04-26T02:06:10;101865.0;;;1.63;77.09
67430;BME280;54298;52.076;5.264;2023-04-26T02:07:46;101863.0;;;1.55;77.3
67430;BME280;54298;52.076;5.264;2023-04-26T02:09:22;101866.0;;;1.51;77.45
67430;BME280;54298;52.076;5.264;2023-04-26T02:12:35;101866.0;;;1.49;77.41
67430;BME280;54298;52.076;5.264;2023-04-26T02:14:11;101869.0;;;1.51;77.19
67430;BME280;54298;52.076;5.264;2023-04-26T02:15:47;101867.0;;;1.61;76.55
67430;BME280;54298;52.076;5.264;2023-04-26T02:19:02;101869.0;;;1.47;76.94
67430;BME280;54298;52.076;5.264;2023-04-26T02:20:39;101867.0;;;1.47;76.78
67430;BME280;54298;52.076;5.264;2023-04-26T02:22:15;101870.0;;;1.45;76.62
67430;BME280;54298;52.076;5.264;2023-04-26T02:23:51;101868.0;;;1.39;76.91
67430;BME280;54298;52.076;5.264;2023-04-26T02:27:03;101867.0;;;1.15;77.87
67430;BME280;54298;52.076;5.264;2023-04-26T02:28:40;101865.0;;;1.36;76.99
67430;BME280;54298;52.076;5.264;2023-04-26T02:30:17;101869.0;;;1.3;77.09
67430;BME280;54298;52.076;5.264;2023-04-26T02:33:29;101873.0;;;1.22;77.19
67430;BME280;54298;52.076;5.264;2023-04-26T02:35:06;101871.0;;;1.19;77.28
67430;BME280;54298;52.076;5.264;2023-04-26T02:36:42;101868.0;;;1.2;77.14
67430;BME280;54298;52.076;5.264;2023-04-26T02:39:54;101868.0;;;1.22;76.91
67430;BME280;54298;52.076;5.264;2023-04-26T02:41:31;101873.0;;;1.21;77.03
67430;BME280;54298;52.076;5.264;2023-04-26T02:43:08;101867.0;;;1.19;77.02
67430;BME280;54298;52.076;5.264;2023-04-26T02:44:44;101867.0;;;1.11;77.5
67430;BME280;54298;52.076;5.264;2023-04-26T02:47:59;101860.0;;;1.02;77.44
67430;BME280;54298;52.076;5.264;2023-04-26T02:49:35;101864.0;;;1.18;76.91
67430;BME280;54298;52.076;5.264;2023-04-26T02:51:11;101862.0;;;1.21;76.77
67430;BME280;54298;52.076;5.264;2023-04-26T02:54:24;101866.0;;;1.1;77.13
67430;BME280;54298;52.076;5.264;2023-04-26T02:56:00;101873.0;;;1.1;77.66
67430;BME280;54298;52.076;5.264;2023-04-26T02:57:36;101866.0;;;1.03;78.09
67430;BME280;54298;52.076;5.264;2023-04-26T03:00:48;101863.0;;;0.85;78.55
67430;BME280;54298;52.076;5.264;2023-04-26T03:02:24;101859.0;;;0.97;78.36
67430;BME280;54298;52.076;5.264;2023-04-26T03:04:00;101853.0;;;1.07;77.87
67430;BME280;54298;52.076;5.264;2023-04-26T03:05:36;101857.0;;;1.07;77.72
67430;BME280;54298;52.076;5.264;2023-04-26T03:08:50;101859.0;;;0.93;78.11
67430;BME280;54298;52.076;5.264;2023-04-26T03:10:26;101856.0;;;0.91;78.44
67430;BME280;54298;52.076;5.264;2023-04-26T03:12:02;101858.0;;;0.95;78.31
67430;BME280;54298;52.076;5.264;2023-04-26T03:15:14;101855.0;;;0.92;78.47
67430;BME280;54298;52.076;5.264;2023-04-26T03:16:50;101856.0;;;0.94;78.39
67430;BME280;54298;52.076;5.264;2023-04-26T03:18:26;101855.0;;;0.94;78.38
67430;BME280;54298;52.076;5.264;2023-04-26T03:21:40;101850.0;;;0.9;78.48
67430;BME280;54298;52.076;5.264;2023-04-26T03:23:16;101852.0;;;0.86;78.87
67430;BME280;54298;52.076;5.264;2023-04-26T03:24:52;101855.0;;;0.6;79.36
67430;BME280;54298;52.076;5.264;2023-04-26T03:28:04;101856.0;;;0.65;79.69
67430;BME280;54298;52.076;5.264;2023-04-26T03:29:40;101853.0;;;0.8;79.05
67430;BME280;54298;52.076;5.264;2023-04-26T03:31:16;101849.0;;;0.56;79.34
67430;BME280;54298;52.076;5.264;2023-04-26T03:32:53;101859.0;;;0.85;78.62
67430;BME280;54298;52.076;5.264;2023-04-26T03:36:06;101844.0;;;0.96;77.74
67430;BME280;54298;52.076;5.264;2023-04-26T03:37:42;101847.0;;;0.74;78.0
67430;BME280;54298;52.076;5.264;2023-04-26T03:39:19;101846.0;;;0.79;78.2
67430;BME280;54298;52.076;5.264;2023-04-26T03:42:31;101846.0;;;0.76;78.5
67430;BME280;54298;52.076;5.264;2023-04-26T03:44:07;101852.0;;;0.83;78.17
67430;BME280;54298;52.076;5.264;2023-04-26T03:45:45;101849.0;;;0.8;78.13
67430;BME280;54298;52.076;5.264;2023-04-26T03:48:58;101846.0;;;0.66;78.95
67430;BME280;54298;52.076;5.264;2023-04-26T03:50:34;101844.0;;;0.75;78.98
67430;BME280;54298;52.076;5.264;2023-04-26T03:52:10;101845.0;;;0.78;78.83
67430;BME280;54298;52.076;5.264;2023-04-26T03:53:46;101842.0;;;0.78;78.8
67430;BME280;54298;52.076;5.264;2023-04-26T03:56:58;101843.0;;;0.81;78.3
67430;BME280;54298;52.076;5.264;2023-04-26T03:58:34;101850.0;;;0.69;78.87
67430;BME280;54298;52.076;5.264;2023-04-26T04:00:12;101844.0;;;0.74;78.72
67430;BME280;54298;52.076;5.264;2023-04-26T04:03:24;101852.0;;;0.78;78.55
67430;BME280;54298;52.076;5.264;2023-04-26T04:05:00;101849.0;;;0.75;78.47
67430;BME280;54298;52.076;5.264;2023-04-26T04:06:36;101844.0;;;0.68;78.64
67430;BME280;54298;52.076;5.264;2023-04-26T04:09:48;101848.0;;;0.62;78.91
67430;BME280;54298;52.076;5.264;2023-04-26T04:11:24;101848.0;;;0.66;78.61
67430;BME280;54298;52.076;5.264;2023-04-26T04:13:00;101844.0;;;0.72;78.63
67430;BME280;54298;52.076;5.264;2023-04-26T04:14:37;101844.0;;;0.73;78.67
67430;BME280;54298;52.076;5.264;2023-04-26T04:17:49;101844.0;;;0.8;77.99
67430;BME280;54298;52.076;5.264;2023-04-26T04:19:25;101851.0;;;0.71;78.58
67430;BME280;54298;52.076;5.264;2023-04-26T04:21:02;101845.0;;;0.71;78.66
67430;BME280;54298;52.076;5.264;2023-04-26T04:24:15;101841.0;;;0.71;78.72
67430;BME280;54298;52.076;5.264;2023-04-26T04:25:50;101840.0;;;0.69;78.77
67430;BME280;54298;52.076;5.264;2023-04-26T04:27:26;101844.0;;;0.8;78.47
67430;BME280;54298;52.076;5.264;2023-04-26T04:30:39;101841.0;;;0.8;78.33
67430;BME280;54298;52.076;5.264;2023-04-26T04:32:16;101845.0;;;0.82;78.12
67430;BME280;54298;52.076;5.264;2023-04-26T04:33:52;101848.0;;;0.77;78.25
67430;BME280;54298;52.076;5.264;2023-04-26T04:37:06;101850.0;;;0.76;78.24
67430;BME280;54298;52.076;5.264;2023-04-26T04:38:42;101851.0;;;0.83;77.84
67430;BME280;54298;52.076;5.264;2023-04-26T04:40:18;101852.0;;;0.74;77.92
67430;BME280;54298;52.076;5.264;2023-04-26T04:41:55;101855.0;;;0.74;78.11
67430;BME280;54298;52.076;5.264;2023-04-26T04:45:08;101855.0;;;0.71;78.27
67430;BME280;54298;52.076;5.264;2023-04-26T04:46:44;101855.0;;;0.54;79.11
67430;BME280;54298;52.076;5.264;2023-04-26T04:48:20;101847.0;;;0.86;78.11
67430;BME280;54298;52.076;5.264;2023-04-26T04:51:32;101850.0;;;0.88;77.66
67430;BME280;54298;52.076;5.264;2023-04-26T04:53:08;101855.0;;;0.96;77.55
67430;BME280;54298;52.076;5.264;2023-04-26T04:54:44;101860.0;;;0.77;78.34
67430;BME280;54298;52.076;5.264;2023-04-26T04:57:57;101860.0;;;0.68;78.86
67430;BME280;54298;52.076;5.264;2023-04-26T04:59:33;101861.0;;;0.61;79.41
67430;BME280;54298;52.076;5.264;2023-04-26T05:01:09;101860.0;;;0.74;79.28
67430;BME280;54298;52.076;5.264;2023-04-26T05:02:45;101862.0;;;0.63;80.06
67430;BME280;54298;52.076;5.264;2023-04-26T05:05:58;101855.0;;;0.82;79.58
67430;BME280;54298;52.076;5.264;2023-04-26T05:07:34;101863.0;;;0.94;79.19
67430;BME280;54298;52.076;5.264;2023-04-26T05:09:10;101861.0;;;0.79;80.05
67430;BME280;54298;52.076;5.264;2023-04-26T05:12:23;101869.0;;;0.87;80.47
67430;BME280;54298;52.076;5.264;2023-04-26T05:13:59;101867.0;;;0.94;80.44
67430;BME280;54298;52.076;5.264;2023-04-26T05:15:35;101871.0;;;1.18;80.0
67430;BME280;54298;52.076;5.264;2023-04-26T05:18:47;101875.0;;;1.22;80.27
67430;BME280;54298;52.076;5.264;2023-04-26T05:20:23;101875.0;;;1.28;80.44
67430;BME280;54298;52.076;5.264;2023-04-26T05:22:01;101874.0;;;1.46;79.95
67430;BME280;54298;52.076;5.264;2023-04-26T05:25:14;101873.0;;;1.5;79.95
67430;BME280;54298;52.076;5.264;2023-04-26T05:26:50;101874.0;;;1.58;79.89
67430;BME280;54298;52.076;5.264;2023-04-26T05:28:26;101868.0;;;1.64;79.58
67430;BME280;54298;52.076;5.264;2023-04-26T05:30:03;101870.0;;;1.91;79.3
67430;BME280;54298;52.076;5.264;2023-04-26T05:33:15;101873.0;;;1.99;79.12
67430;BME280;54298;52.076;5.264;2023-04-26T05:34:51;101873.0;;;2.12;79.05
67430;BME280;54298;52.076;5.264;2023-04-26T05:36:28;101870.0;;;2.27;78.83
67430;BME280;54298;52.076;5.264;2023-04-26T05:39:40;101871.0;;;2.31;78.56
67430;BME280;54298;52.076;5.264;2023-04-26T05:41:16;101874.0;;;2.44;78.36
67430;BME280;54298;52.076;5.264;2023-04-26T05:42:52;101872.0;;;2.5;78.22
67430;BME280;54298;52.076;5.264;2023-04-26T05:46:04;101874.0;;;2.67;78.22
67430;BME280;54298;52.076;5.264;2023-04-26T05:47:41;101876.0;;;2.87;78.08
67430;BME280;54298;52.076;5.264;2023-04-26T05:49:17;101871.0;;;3.01;77.58
67430;BME280;54298;52.076;5.264;2023-04-26T05:50:53;101873.0;;;3.1;77.58
67430;BME280;54298;52.076;5.264;2023-04-26T05:54:05;101872.0;;;3.18;77.52
67430;BME280;54298;52.076;5.264;2023-04-26T05:55:42;101876.0;;;3.23;77.74
67430;BME280;54298;52.076;5.264;2023-04-26T05:57:17;101877.0;;;3.46;77.64
67430;BME280;54298;52.076;5.264;2023-04-26T06:00:30;101874.0;;;3.7;77.41
67430;BME280;54298;52.076;5.264;2023-04-26T06:02:06;101880.0;;;3.94;77.23
67430;BME280;54298;52.076;5.264;2023-04-26T06:03:43;101878.0;;;4.03;77.55
67430;BME280;54298;52.076;5.264;2023-04-26T06:06:56;101881.0;;;4.24;77.08
67430;BME280;54298;52.076;5.264;2023-04-26T06:08:33;101875.0;;;4.33;77.27
67430;BME280;54298;52.076;5.264;2023-04-26T06:10:09;101873.0;;;4.55;77.67
67430;BME280;54298;52.076;5.264;2023-04-26T06:11:46;101875.0;;;4.75;78.08
67430;BME280;54298;52.076;5.264;2023-04-26T06:14:58;101880.0;;;4.93;78.16
67430;BME280;54298;52.076;5.264;2023-04-26T06:16:34;101876.0;;;5.13;77.84
67430;BME280;54298;52.076;5.264;2023-04-26T06:18:10;101880.0;;;5.31;77.31
67430;BME280;54298;52.076;5.264;2023-04-26T06:21:23;101880.0;;;5.5;76.83
67430;BME280;54298;52.076;5.264;2023-04-26T06:22:59;101880.0;;;5.66;76.47
67430;BME280;54298;52.076;5.264;2023-04-26T06:24:36;101886.0;;;5.78;75.95
67430;BME280;54298;52.076;5.264;2023-04-26T06:27:48;101886.0;;;5.88;75.52
67430;BME280;54298;52.076;5.264;2023-04-26T06:29:24;101889.0;;;5.94;75.31
67430;BME280;54298;52.076;5.264;2023-04-26T06:31:00;101888.0;;;6.04;75.24
67430;BME280;54298;52.076;5.264;2023-04-26T06:34:13;101892.0;;;6.16;74.97
67430;BME280;54298;52.076;5.264;2023-04-26T06:35:50;101889.0;;;6.27;74.58
67430;BME280;54298;52.076;5.264;2023-04-26T06:37:26;101895.0;;;6.4;74.06
67430;BME280;54298;52.076;5.264;2023-04-26T06:39:03;101892.0;;;6.55;73.62
67430;BME280;54298;52.076;5.264;2023-04-26T06:42:15;101896.0;;;6.62;73.11
67430;BME280;54298;52.076;5.264;2023-04-26T06:43:51;101899.0;;;6.77;73.03
67430;BME280;54298;52.076;5.264;2023-04-26T06:45:27;101896.0;;;6.88;72.59
67430;BME280;54298;52.076;5.264;2023-04-26T06:48:42;101898.0;;;6.99;72.11
67430;BME280;54298;52.076;5.264;2023-04-26T06:50:18;101899.0;;;7.08;71.38
67430;BME280;54298;52.076;5.264;2023-04-26T06:51:54;101899.0;;;7.22;70.69
67430;BME280;54298;52.076;5.264;2023-04-26T06:55:07;101896.0;;;7.29;70.27
67430;BME280;54298;52.076;5.264;2023-04-26T06:56:43;101894.0;;;7.25;70.02
67430;BME280;54298;52.076;5.264;2023-04-26T06:58:20;101897.0;;;7.38;69.41
67430;BME280;54298;52.076;5.264;2023-04-26T06:59:56;101900.0;;;7.39;69.12
67430;BME280;54298;52.076;5.264;2023-04-26T07:03:10;101901.0;;;7.56;68.8
67430;BME280;54298;52.076;5.264;2023-04-26T07:04:46;101896.0;;;7.6;68.83
67430;BME280;54298;52.076;5.264;2023-04-26T07:06:23;101899.0;;;7.66;68.33
67430;BME280;54298;52.076;5.264;2023-04-26T07:09:36;101897.0;;;7.69;67.44
67430;BME280;54298;52.076;5.264;2023-04-26T07:11:12;101894.0;;;7.75;67.33
67430;BME280;54298;52.076;5.264;2023-04-26T07:12:48;101896.0;;;7.87;66.72
67430;BME280;54298;52.076;5.264;2023-04-26T07:16:01;101901.0;;;7.94;66.05
67430;BME280;54298;52.076;5.264;2023-04-26T07:17:37;101897.0;;;8.03;65.63
67430;BME280;54298;52.076;5.264;2023-04-26T07:19:13;101893.0;;;7.97;64.7
67430;BME280;54298;52.076;5.264;2023-04-26T07:20:48;101892.0;;;7.98;64.28
67430;BME280;54298;52.076;5.264;2023-04-26T07:24:00;101888.0;;;8.11;64.16
67430;BME280;54298;52.076;5.264;2023-04-26T07:25:36;101887.0;;;8.11;63.5
67430;BME280;54298;52.076;5.264;2023-04-26T07:27:13;101887.0;;;8.17;63.09
67430;BME280;54298;52.076;5.264;2023-04-26T07:30:26;101891.0;;;8.27;62.67
67430;BME280;54298;52.076;5.264;2023-04-26T07:32:02;101888.0;;;8.39;62.91
67430;BME280;54298;52.076;5.264;2023-04-26T07:33:38;101895.0;;;8.4;62.53
67430;BME280;54298;52.076;5.264;2023-04-26T07:36:51;101893.0;;;8.38;62.4
67430;BME280;54298;52.076;5.264;2023-04-26T07:38:27;101897.0;;;8.48;62.5
67430;BME280;54298;52.076;5.264;2023-04-26T07:40:04;101892.0;;;8.58;62.49
67430;BME280;54298;52.076;5.264;2023-04-26T07:44:53;101896.0;;;8.72;60.33
67430;BME280;54298;52.076;5.264;2023-04-26T07:46:29;101895.0;;;8.76;60.09
67430;BME280;54298;52.076;5.264;2023-04-26T07:48:07;101899.0;;;8.82;60.16
67430;BME280;54298;52.076;5.264;2023-04-26T07:51:20;101900.0;;;8.88;60.31
67430;BME280;54298;52.076;5.264;2023-04-26T07:52:56;101902.0;;;8.85;58.43
67430;BME280;54298;52.076;5.264;2023-04-26T07:54:32;101905.0;;;8.81;58.46
67430;BME280;54298;52.076;5.264;2023-04-26T07:57:44;101905.0;;;8.85;57.87
67430;BME280;54298;52.076;5.264;2023-04-26T07:59:20;101908.0;;;8.94;56.99
67430;BME280;54298;52.076;5.264;2023-04-26T08:00:56;101912.0;;;9.03;56.01
67430;BME280;54298;52.076;5.264;2023-04-26T08:04:09;101909.0;;;9.14;56.25
67430;BME280;54298;52.076;5.264;2023-04-26T08:05:45;101910.0;;;9.14;56.2
67430;BME280;54298;52.076;5.264;2023-04-26T08:07:21;101911.0;;;8.97;55.58
67430;BME280;54298;52.076;5.264;2023-04-26T08:08:57;101910.0;;;9.24;55.12
67430;BME280;54298;52.076;5.264;2023-04-26T08:12:10;101912.0;;;9.43;55.12
67430;BME280;54298;52.076;5.264;2023-04-26T08:13:46;101910.0;;;9.44;53.56
67430;BME280;54298;52.076;5.264;2023-04-26T08:15:23;101906.0;;;9.35;53.39
67430;BME280;54298;52.076;5.264;2023-04-26T08:18:36;101907.0;;;9.31;54.25
67430;BME280;54298;52.076;5.264;2023-04-26T08:20:12;101910.0;;;9.35;54.19
67430;BME280;54298;52.076;5.264;2023-04-26T08:21:48;101911.0;;;9.39;53.92
67430;BME280;54298;52.076;5.264;2023-04-26T08:25:00;101912.0;;;9.35;53.34
67430;BME280;54298;52.076;5.264;2023-04-26T08:26:36;101914.0;;;9.44;53.46
67430;BME280;54298;52.076;5.264;2023-04-26T08:28:12;101912.0;;;9.44;52.64
67430;BME280;54298;52.076;5.264;2023-04-26T08:29:49;101911.0;;;9.48;51.55
67430;BME280;54298;52.076;5.264;2023-04-26T08:33:02;101905.0;;;9.31;51.97
67430;BME280;54298;52.076;5.264;2023-04-26T08:34:38;101910.0;;;9.42;52.0
67430;BME280;54298;52.076;5.264;2023-04-26T08:36:14;101908.0;;;9.4;52.39
67430;BME280;54298;52.076;5.264;2023-04-26T08:39:27;101911.0;;;9.28;53.38
67430;BME280;54298;52.076;5.264;2023-04-26T08:41:04;101916.0;;;9.28;53.03
67430;BME280;54298;52.076;5.264;2023-04-26T08:42:41;101917.0;;;9.06;53.32
67430;BME280;54298;52.076;5.264;2023-04-26T08:45:58;101919.0;;;9.24;54.05
67430;BME280;54298;52.076;5.264;2023-04-26T08:47:39;101914.0;;;9.35;54.62
67430;BME280;54298;52.076;5.264;2023-04-26T08:49:26;101916.0;;;9.36;53.89
67430;BME280;54298;52.076;5.264;2023-04-26T08:51:11;101922.0;;;9.28;54.73
67430;BME280;54298;52.076;5.264;2023-04-26T08:54:27;101915.0;;;9.38;55.2
67430;BME280;54298;52.076;5.264;2023-04-26T08:56:03;101918.0;;;9.33;55.45
67430;BME280;54298;52.076;5.264;2023-04-26T08:57:42;101916.0;;;9.32;55.17
67430;BME280;54298;52.076;5.264;2023-04-26T08:59:18;101910.0;;;9.26;54.31
67430;BME280;54298;52.076;5.264;2023-04-26T09:02:33;101915.0;;;9.34;55.13
67430;BME280;54298;52.076;5.264;2023-04-26T09:04:09;101915.0;;;9.27;54.85
67430;BME280;54298;52.076;5.264;2023-04-26T09:05:47;101913.0;;;9.02;55.64
67430;BME280;54298;52.076;5.264;2023-04-26T09:09:07;101910.0;;;9.26;55.52
67430;BME280;54298;52.076;5.264;2023-04-26T09:10:45;101912.0;;;9.24;55.06
67430;BME280;54298;52.076;5.264;2023-04-26T09:12:22;101913.0;;;9.23;54.44
67430;BME280;54298;52.076;5.264;2023-04-26T09:13:58;101911.0;;;9.41;53.56
67430;BME280;54298;52.076;5.264;2023-04-26T09:17:23;101910.0;;;9.41;53.98
67430;BME280;54298;52.076;5.264;2023-04-26T09:19:01;101909.0;;;9.32;52.78
67430;BME280;54298;52.076;5.264;2023-04-26T09:20:37;101906.0;;;9.43;52.82
67430;BME280;54298;52.076;5.264;2023-04-26T09:22:13;101908.0;;;9.65;52.26
67430;BME280;54298;52.076;5.264;2023-04-26T09:25:34;101910.0;;;9.71;53.23
67430;BME280;54298;52.076;5.264;2023-04-26T09:27:10;101917.0;;;9.69;53.49
67430;BME280;54298;52.076;5.264;2023-04-26T09:28:46;101917.0;;;9.68;51.54
67430;BME280;54298;52.076;5.264;2023-04-26T09:32:00;101917.0;;;9.67;51.25
67430;BME280;54298;52.076;5.264;2023-04-26T09:33:56;101917.0;;;9.48;51.37
67430;BME280;54298;52.076;5.264;2023-04-26T09:35:33;101918.0;;;9.61;51.74
67430;BME280;54298;52.076;5.264;2023-04-26T09:37:10;101916.0;;;9.58;50.52
67430;BME280;54298;52.076;5.264;2023-04-26T09:40:22;101917.0;;;9.58;51.05
67430;BME280;54298;52.076;5.264;2023-04-26T09:42:02;101919.0;;;9.4;51.8
67430;BME280;54298;52.076;5.264;2023-04-26T09:43:38;101913.0;;;9.65;49.72
67430;BME280;54298;52.076;5.264;2023-04-26T09:45:16;101910.0;;;9.89;49.66
67430;BME280;54298;52.076;5.264;2023-04-26T09:48:38;101917.0;;;9.8;49.6
67430;BME280;54298;52.076;5.264;2023-04-26T09:50:24;101915.0;;;10.06;50.06
67430;BME280;54298;52.076;5.264;2023-04-26T09:52:03;101913.0;;;10.17;49.41
67430;BME280;54298;52.076;5.264;2023-04-26T09:53:40;101905.0;;;10.16;49.45
67430;BME280;54298;52.076;5.264;2023-04-26T09:57:03;101908.0;;;10.22;49.39
67430;BME280;54298;52.076;5.264;2023-04-26T09:58:55;101906.0;;;10.26;49.35
67430;BME280;54298;52.076;5.264;2023-04-26T10:00:32;101905.0;;;10.36;49.14
67430;BME280;54298;52.076;5.264;2023-04-26T10:02:13;101906.0;;;10.34;49.08
67430;BME280;54298;52.076;5.264;2023-04-26T10:05:27;101905.0;;;10.39;48.49
67430;BME280;54298;52.076;5.264;2023-04-26T10:07:04;101905.0;;;10.26;48.13
67430;BME280;54298;52.076;5.264;2023-04-26T10:08:41;101901.0;;;10.38;48.17
67430;BME280;54298;52.076;5.264;2023-04-26T10:10:18;101899.0;;;10.48;47.86
67430;BME280;54298;52.076;5.264;2023-04-26T10:13:33;101901.0;;;10.43;48.74
67430;BME280;54298;52.076;5.264;2023-04-26T10:15:10;101903.0;;;10.43;48.3
67430;BME280;54298;52.076;5.264;2023-04-26T10:16:47;101905.0;;;10.38;48.19
67430;BME280;54298;52.076;5.264;2023-04-26T10:20:01;101902.0;;;10.44;48.01
67430;BME280;54298;52.076;5.264;2023-04-26T10:21:41;101902.0;;;10.32;48.38
67430;BME280;54298;52.076;5.264;2023-04-26T10:23:20;101905.0;;;10.54;47.98
67430;BME280;54298;52.076;5.264;2023-04-26T10:24:57;101906.0;;;10.54;47.64
67430;BME280;54298;52.076;5.264;2023-04-26T10:28:57;101905.0;;;10.58;48.23
67430;BME280;54298;52.076;5.264;2023-04-26T10:30:53;101905.0;;;10.49;47.57
67430;BME280;54298;52.076;5.264;2023-04-26T10:32:29;101908.0;;;10.3;48.13
67430;BME280;54298;52.076;5.264;2023-04-26T10:34:21;101903.0;;;10.27;48.21
67430;BME280;54298;52.076;5.264;2023-04-26T10:36:01;101905.0;;;10.22;48.71
67430;BME280;54298;52.076;5.264;2023-04-26T10:38:21;101908.0;;;9.93;49.81
67430;BME280;54298;52.076;5.264;2023-04-26T10:40:22;101907.0;;;10.25;50.06
67430;BME280;54298;52.076;5.264;2023-04-26T10:42:16;101903.0;;;10.0;49.13
67430;BME280;54298;52.076;5.264;2023-04-26T10:44:38;101906.0;;;10.13;50.47
67430;BME280;54298;52.076;5.264;2023-04-26T10:46:36;101903.0;;;10.06;49.72
67430;BME280;54298;52.076;5.264;2023-04-26T10:48:14;101905.0;;;10.05;49.91
67430;BME280;54298;52.076;5.264;2023-04-26T10:52:16;101908.0;;;10.08;49.64
67430;BME280;54298;52.076;5.264;2023-04-26T10:53:58;101910.0;;;10.06;50.19
67430;BME280;54298;52.076;5.264;2023-04-26T10:55:37;101906.0;;;9.9;50.44
67430;BME280;54298;52.076;5.264;2023-04-26T10:57:14;101910.0;;;9.72;50.64
67430;BME280;54298;52.076;5.264;2023-04-26T10:59:06;101905.0;;;9.89;50.91
67430;BME280;54298;52.076;5.264;2023-04-26T11:01:02;101914.0;;;9.74;51.35
67430;BME280;54298;52.076;5.264;2023-04-26T11:02:43;101912.0;;;9.82;51.21
67430;BME280;54298;52.076;5.264;2023-04-26T11:05:56;101913.0;;;9.82;50.93
67430;BME280;54298;52.076;5.264;2023-04-26T11:07:36;101913.0;;;9.76;51.41
67430;BME280;54298;52.076;5.264;2023-04-26T11:09:48;101912.0;;;9.73;51.49
67430;BME280;54298;52.076;5.264;2023-04-26T11:11:25;101910.0;;;9.73;51.5
67430;BME280;54298;52.076;5.264;2023-04-26T11:13:02;101902.0;;;9.76;51.61
67430;BME280;54298;52.076;5.264;2023-04-26T11:16:16;101897.0;;;9.74;52.23
67430;BME280;54298;52.076;5.264;2023-04-26T11:17:52;101894.0;;;9.78;51.93